createdAt,value
2023-03-04T00:01:30.275Z,91.00
2023-03-04T00:04:32.174Z,91.10
2023-03-04T00:07:33.713Z,90.80
2023-03-04T00:10:35.269Z,91.10
2023-03-04T00:13:37.261Z,91.30
2023-03-04T00:16:38.830Z,91.10
2023-03-04T00:19:40.421Z,91.20
2023-03-04T00:22:42.167Z,91.00
2023-03-04T00:25:43.773Z,91.00
2023-03-04T00:28:45.336Z,91.10
2023-03-04T00:31:47.093Z,91.20
2023-03-04T00:34:48.765Z,91.20
2023-03-04T00:37:50.404Z,91.10
2023-03-04T00:40:52.223Z,91.20
2023-03-04T00:43:53.761Z,91.40
2023-03-04T00:46:55.277Z,91.10
2023-03-04T00:49:57.086Z,91.20
2023-03-04T00:52:58.850Z,91.10
2023-03-04T00:59:17.541Z,90.20
2023-03-04T01:02:19.207Z,91.10
2023-03-04T01:05:21.065Z,91.20
2023-03-04T01:08:22.616Z,90.60
2023-03-04T01:11:24.372Z,91.20
2023-03-04T01:14:26.454Z,91.10
2023-03-04T01:17:28.196Z,91.10
2023-03-04T01:20:29.762Z,91.20
2023-03-04T01:23:31.418Z,91.20
2023-03-04T01:26:33.175Z,91.20
2023-03-04T01:29:34.844Z,91.10
2023-03-04T01:32:36.429Z,91.10
2023-03-04T01:35:38.090Z,91.00
2023-03-04T01:38:39.730Z,91.10
2023-03-04T01:41:41.593Z,91.10
2023-03-04T01:44:44.467Z,91.00
2023-03-04T01:47:49.062Z,91.00
2023-03-04T01:50:50.804Z,91.20
2023-03-04T01:53:54.869Z,91.00
2023-03-04T01:56:58.044Z,90.60
2023-03-04T02:00:23.424Z,91.10
2023-03-04T02:03:25.653Z,91.00
2023-03-04T02:06:27.314Z,91.10
2023-03-04T02:09:31.315Z,91.20
2023-03-04T02:12:33.064Z,91.10
2023-03-04T02:15:34.893Z,90.60
2023-03-04T02:18:36.463Z,91.10
2023-03-04T02:21:38.067Z,91.00
2023-03-04T02:24:46.217Z,91.10
2023-03-04T02:27:47.857Z,91.10
2023-03-04T02:30:49.482Z,91.10
2023-03-04T02:33:52.685Z,91.00
2023-03-04T02:36:55.164Z,90.90
2023-03-04T02:39:56.982Z,91.00
2023-03-04T02:43:00.882Z,91.20
2023-03-04T02:46:02.674Z,91.10
2023-03-04T02:49:04.264Z,91.40
2023-03-04T02:52:06.030Z,90.90
2023-03-04T02:55:08.015Z,90.90
2023-03-04T02:58:10.301Z,90.90
2023-03-04T03:01:11.924Z,90.90
2023-03-04T03:04:14.096Z,91.20
2023-03-04T03:07:15.620Z,91.10
2023-03-04T03:10:17.634Z,91.10
2023-03-04T03:13:19.229Z,90.70
2023-03-04T03:16:20.850Z,91.20
2023-03-04T03:19:22.389Z,91.00
2023-03-04T03:22:24.328Z,91.10
2023-03-04T03:25:25.873Z,91.00
2023-03-04T03:28:27.821Z,91.40
2023-03-04T03:31:29.523Z,91.10
2023-03-04T03:34:31.116Z,91.00
2023-03-04T03:37:32.906Z,91.20
2023-03-04T03:40:34.497Z,91.10
2023-03-04T03:43:36.066Z,91.30
2023-03-04T03:46:37.614Z,91.10
2023-03-04T03:49:39.156Z,91.10
2023-03-04T03:52:40.737Z,91.20
2023-03-04T03:55:42.320Z,91.30
2023-03-04T03:58:43.878Z,91.20
2023-03-04T04:01:45.471Z,91.30
2023-03-04T04:04:47.054Z,91.20
2023-03-04T04:07:48.612Z,91.20
2023-03-04T04:10:50.205Z,91.30
2023-03-04T04:13:51.845Z,91.50
2023-03-04T04:16:53.495Z,91.20
2023-03-04T04:19:55.084Z,91.20
2023-03-04T04:22:56.774Z,91.30
2023-03-04T04:25:58.354Z,91.30
2023-03-04T04:28:59.869Z,91.30
2023-03-04T04:32:01.499Z,91.40
2023-03-04T04:35:03.184Z,91.20
2023-03-04T04:38:06.052Z,91.00
2023-03-04T04:41:40.921Z,91.20
2023-03-04T04:44:42.576Z,90.50
2023-03-04T04:47:44.539Z,91.30
2023-03-04T04:50:46.134Z,91.30
2023-03-04T04:53:48.607Z,92.00
2023-03-04T04:56:50.256Z,91.50
2023-03-04T04:59:51.916Z,91.50
2023-03-04T05:02:53.483Z,91.40
2023-03-04T05:05:55.125Z,91.40
2023-03-04T05:08:57.117Z,91.40
2023-03-04T05:11:58.673Z,90.90
2023-03-04T05:15:00.251Z,91.30
2023-03-04T05:18:01.782Z,91.30
2023-03-04T05:21:03.961Z,91.30
2023-03-04T05:24:06.742Z,91.30
2023-03-04T05:27:08.301Z,91.20
2023-03-04T05:30:10.955Z,91.30
2023-03-04T05:33:13.961Z,91.10
2023-03-04T05:36:15.540Z,91.40
2023-03-04T05:39:17.165Z,91.30
2023-03-04T05:42:18.715Z,92.00
2023-03-04T05:45:20.250Z,91.30
2023-03-04T05:48:22.036Z,91.30
2023-03-04T05:51:24.023Z,91.30
2023-03-04T05:54:25.732Z,91.40
2023-03-04T05:57:27.442Z,91.50
2023-03-04T06:00:29.044Z,91.40
2023-03-04T06:03:30.676Z,91.40
2023-03-04T06:06:32.309Z,91.50
2023-03-04T06:09:34.159Z,91.40
2023-03-04T06:12:35.713Z,91.70
2023-03-04T06:15:38.464Z,91.50
2023-03-04T06:18:40.124Z,91.40
2023-03-04T06:21:41.680Z,91.40
2023-03-04T06:24:43.483Z,91.40
2023-03-04T06:27:45.034Z,91.50
2023-03-04T06:30:46.704Z,91.50
2023-03-04T06:33:48.332Z,91.50
2023-03-04T06:36:50.165Z,91.40
2023-03-04T06:39:51.858Z,91.50
2023-03-04T06:42:53.422Z,91.40
2023-03-04T06:45:55.004Z,91.40
2023-03-04T06:48:56.791Z,91.40
2023-03-04T06:51:58.559Z,91.50
2023-03-04T06:55:00.150Z,91.40
2023-03-04T06:58:01.712Z,91.60
2023-03-04T07:01:13.827Z,91.60
2023-03-04T07:04:15.524Z,91.70
2023-03-04T07:07:17.177Z,91.60
2023-03-04T07:10:19.545Z,91.80
2023-03-04T07:13:21.140Z,91.50
2023-03-04T07:16:23.892Z,91.60
2023-03-04T07:19:25.701Z,91.80
2023-03-04T07:22:27.337Z,91.60
2023-03-04T07:25:29.106Z,91.80
2023-03-04T07:28:30.845Z,91.70
2023-03-04T07:31:34.758Z,91.80
2023-03-04T07:34:36.316Z,91.80
2023-03-04T07:37:37.923Z,91.80
2023-03-04T07:40:39.524Z,91.70
2023-03-04T07:43:41.101Z,91.90
2023-03-04T07:46:42.743Z,91.90
2023-03-04T07:49:44.309Z,91.80
2023-03-04T07:52:48.303Z,91.80
2023-03-04T07:55:49.920Z,91.90
2023-03-04T07:58:53.542Z,91.80
2023-03-04T08:01:55.115Z,91.80
2023-03-04T08:04:56.664Z,91.80
2023-03-04T08:07:58.352Z,91.90
2023-03-04T08:11:00.000Z,91.80
2023-03-04T08:14:01.895Z,91.90
2023-03-04T08:17:03.495Z,92.00
2023-03-04T08:20:05.558Z,92.20
2023-03-04T08:23:07.354Z,91.70
2023-03-04T08:26:12.362Z,92.00
2023-03-04T08:29:21.175Z,91.90
2023-03-04T08:32:23.603Z,91.00
2023-03-04T08:35:25.350Z,91.50
2023-03-04T08:38:27.032Z,91.50
2023-03-04T08:41:29.268Z,91.50
2023-03-04T08:44:30.936Z,91.50
2023-03-04T08:47:32.546Z,91.60
2023-03-04T08:50:34.162Z,91.80
2023-03-04T08:53:36.513Z,91.80
2023-03-04T08:56:38.430Z,92.00
2023-03-04T08:59:39.975Z,91.90
2023-03-04T09:02:41.721Z,92.10
2023-03-04T09:05:45.254Z,92.10
2023-03-04T09:08:47.029Z,92.40
2023-03-04T09:11:48.610Z,92.40
2023-03-04T09:15:04.564Z,92.70
2023-03-04T09:18:11.942Z,92.80
2023-03-04T09:21:13.537Z,92.80
2023-03-04T09:24:15.295Z,92.80
2023-03-04T09:27:16.843Z,92.80
2023-03-04T09:30:18.698Z,92.80
2023-03-04T09:33:20.260Z,92.50
2023-03-04T09:36:22.322Z,92.70
2023-03-04T09:39:23.946Z,92.70
2023-03-04T09:42:34.283Z,93.20
2023-03-04T09:45:47.501Z,92.80
2023-03-04T09:48:54.625Z,92.70
2023-03-04T09:52:25.786Z,92.60
2023-03-04T09:55:42.989Z,91.70
2023-03-04T09:58:59.444Z,92.80
2023-03-04T10:02:10.588Z,91.80
2023-03-04T10:05:18.737Z,92.60
2023-03-04T10:08:36.841Z,92.40
2023-03-04T10:11:46.340Z,91.50
2023-03-04T10:15:06.489Z,91.40
2023-03-04T10:18:36.184Z,91.50
2023-03-04T10:21:49.276Z,91.60
2023-03-04T10:24:55.603Z,92.90
2023-03-04T10:28:23.864Z,92.80
2023-03-04T10:31:37.170Z,92.50
2023-03-04T10:34:38.821Z,92.60
2023-03-04T10:37:48.908Z,92.40
2023-03-04T10:40:50.597Z,92.50
2023-03-04T10:44:13.068Z,92.40
2023-03-04T10:47:16.573Z,92.80
2023-03-04T10:50:24.977Z,92.70
2023-03-04T10:53:39.389Z,92.60
2023-03-04T10:56:46.118Z,92.60
2023-03-04T10:59:54.858Z,92.30
2023-03-04T11:03:30.232Z,92.30
2023-03-04T11:06:32.493Z,91.70
2023-03-04T11:09:34.011Z,92.20
2023-03-04T11:12:35.814Z,92.50
2023-03-04T11:16:04.155Z,92.50
2023-03-04T11:19:16.845Z,91.80
2023-03-04T11:22:21.827Z,92.60
2023-03-04T11:25:36.202Z,92.40
2023-03-04T11:28:59.677Z,91.30
2023-03-04T11:32:01.363Z,91.20
2023-03-04T11:35:34.561Z,91.70
2023-03-04T11:38:48.974Z,90.90
2023-03-04T11:42:01.429Z,91.60
2023-03-04T11:45:04.672Z,91.70
2023-03-04T11:48:13.163Z,92.00
2023-03-04T11:51:33.793Z,92.30
2023-03-04T11:55:04.811Z,91.80
2023-03-04T11:58:25.136Z,91.80
2023-03-04T12:01:44.823Z,91.70
2023-03-04T12:05:04.286Z,91.90
2023-03-04T12:08:24.453Z,91.80
2023-03-04T12:11:33.170Z,91.80
2023-03-04T12:14:41.305Z,91.80
2023-03-04T12:17:56.671Z,92.50
2023-03-04T12:21:30.885Z,92.50
2023-03-04T12:25:12.516Z,91.50
2023-03-04T12:28:52.126Z,91.30
2023-03-04T12:32:11.406Z,91.60
2023-03-04T12:35:47.253Z,92.20
2023-03-04T12:38:51.622Z,91.70
2023-03-04T12:42:02.100Z,92.90
2023-03-04T12:45:32.435Z,91.90
2023-03-04T12:48:39.097Z,92.00
2023-03-04T12:51:53.108Z,91.90
2023-03-04T12:55:02.659Z,93.10
2023-03-04T12:58:06.044Z,93.30
2023-03-04T13:01:42.702Z,93.30
2023-03-04T13:04:59.409Z,92.70
2023-03-04T13:08:42.800Z,92.70
2023-03-04T13:11:52.479Z,92.70
2023-03-04T13:15:09.245Z,93.30
2023-03-04T13:18:37.047Z,93.40
2023-03-04T13:21:49.390Z,92.60
2023-03-04T13:24:51.145Z,93.40
2023-03-04T13:28:18.579Z,93.20
2023-03-04T13:31:24.108Z,92.70
2023-03-04T13:34:46.141Z,93.50
2023-03-04T13:37:58.783Z,92.70
2023-03-04T13:41:19.009Z,93.60
2023-03-04T13:44:34.590Z,92.70
2023-03-04T13:47:43.771Z,93.50
2023-03-04T13:50:48.097Z,93.60
2023-03-04T13:53:54.559Z,93.50
2023-03-04T13:57:03.693Z,94.10
2023-03-04T14:00:11.357Z,93.20
2023-03-04T14:03:14.701Z,93.40
2023-03-04T14:06:25.506Z,93.50
2023-03-04T14:09:28.729Z,92.80
2023-03-04T14:12:33.200Z,93.40
2023-03-04T14:15:35.303Z,93.50
2023-03-04T14:18:38.071Z,93.80
2023-03-04T14:21:46.329Z,93.90
2023-03-04T14:25:03.482Z,93.90
2023-03-04T14:28:16.734Z,94.10
2023-03-04T14:31:24.299Z,94.00
2023-03-04T14:34:35.394Z,94.10
2023-03-04T14:37:44.612Z,94.10
2023-03-04T14:40:51.622Z,94.10
2023-03-04T14:44:23.670Z,94.10
2023-03-04T14:47:39.140Z,94.20
2023-03-04T14:50:52.144Z,94.30
2023-03-04T14:53:55.842Z,93.20
2023-03-04T14:56:59.445Z,93.90
2023-03-04T15:00:19.783Z,93.80
2023-03-04T15:03:26.256Z,93.90
2023-03-04T15:06:31.241Z,93.70
2023-03-04T15:09:32.958Z,93.80
2023-03-04T15:12:37.689Z,93.80
2023-03-04T15:15:41.926Z,93.90
2023-03-04T15:19:05.811Z,93.70
2023-03-04T15:22:08.001Z,93.10
2023-03-04T15:25:15.180Z,93.60
2023-03-04T15:28:20.849Z,93.60
2023-03-04T15:31:25.804Z,93.60
2023-03-04T15:34:27.590Z,93.80
2023-03-04T15:37:29.749Z,93.40
2023-03-04T15:40:38.908Z,93.50
2023-03-04T15:43:40.499Z,93.60
2023-03-04T15:46:42.165Z,93.60
2023-03-04T15:49:47.257Z,93.60
2023-03-04T15:52:51.101Z,93.50
2023-03-04T15:55:53.285Z,93.30
2023-03-04T15:59:19.416Z,93.40
2023-03-04T16:02:23.762Z,93.50
2023-03-04T16:05:25.403Z,93.40
2023-03-04T16:08:27.192Z,93.50
2023-03-04T16:11:32.490Z,93.50
2023-03-04T16:14:34.106Z,93.50
2023-03-04T16:17:35.751Z,93.80
2023-03-04T16:20:38.920Z,93.50
2023-03-04T16:23:43.224Z,93.40
2023-03-04T16:26:45.067Z,93.50
2023-03-04T16:29:46.704Z,93.40
2023-03-04T16:32:48.314Z,93.40
2023-03-04T16:35:51.481Z,93.20
2023-03-04T16:38:57.634Z,93.10
2023-03-04T16:41:59.349Z,93.10
2023-03-04T16:45:00.989Z,93.00
2023-03-04T16:48:02.552Z,92.90
2023-03-04T16:51:12.136Z,92.70
2023-03-04T16:54:30.220Z,92.80
2023-03-04T16:57:31.833Z,92.80
2023-03-04T17:00:33.833Z,92.70
2023-03-04T17:03:35.419Z,92.90
2023-03-04T17:06:40.115Z,92.90
2023-03-04T17:09:41.875Z,92.00
2023-03-04T17:12:43.885Z,92.70
2023-03-04T17:15:46.780Z,92.70
2023-03-04T17:18:48.636Z,92.70
2023-03-04T17:21:50.186Z,92.70
2023-03-04T17:24:51.737Z,92.70
2023-03-04T17:27:53.272Z,92.80
2023-03-04T17:30:55.083Z,92.60
2023-03-04T17:33:56.713Z,92.60
2023-03-04T17:36:59.813Z,92.60
2023-03-04T17:40:13.932Z,92.60
2023-03-04T17:43:15.538Z,92.50
2023-03-04T17:46:20.837Z,92.70
2023-03-04T17:49:22.551Z,92.90
2023-03-04T17:52:24.091Z,92.50
2023-03-04T17:55:25.672Z,92.50
2023-03-04T17:58:28.952Z,92.50
2023-03-04T18:01:30.494Z,92.60
2023-03-04T18:04:32.421Z,92.60
2023-03-04T18:07:34.186Z,92.60
2023-03-04T18:10:35.761Z,92.60
2023-03-04T18:13:38.273Z,92.50
2023-03-04T18:16:40.380Z,92.30
2023-03-04T18:19:42.057Z,92.30
2023-03-04T18:22:44.613Z,92.20
2023-03-04T18:25:46.207Z,92.80
2023-03-04T18:28:47.784Z,92.30
2023-03-04T18:31:49.429Z,92.50
2023-03-04T18:34:51.104Z,92.00
2023-03-04T18:37:52.654Z,91.90
2023-03-04T18:41:01.942Z,92.00
2023-03-04T18:44:05.076Z,91.00
2023-03-04T18:47:06.877Z,91.80
2023-03-04T18:50:09.845Z,91.70
2023-03-04T18:53:11.541Z,91.40
2023-03-04T18:56:29.807Z,91.70
2023-03-04T18:59:36.949Z,91.70
2023-03-04T19:02:49.572Z,91.90
2023-03-04T19:05:51.127Z,91.00
2023-03-04T19:08:55.119Z,91.70
2023-03-04T19:11:56.717Z,91.80
2023-03-04T19:14:58.778Z,91.60
2023-03-04T19:18:00.429Z,91.70
2023-03-04T19:21:04.181Z,91.50
2023-03-04T19:24:07.216Z,91.50
2023-03-04T19:27:08.780Z,91.40
2023-03-04T19:30:10.875Z,91.40
2023-03-04T19:33:12.481Z,91.20
2023-03-04T19:36:14.095Z,91.50
2023-03-04T19:39:18.284Z,91.40
2023-03-04T19:42:19.832Z,91.50
2023-03-04T19:45:21.424Z,91.40
2023-03-04T19:48:24.133Z,91.30
2023-03-04T19:51:26.818Z,91.40
2023-03-04T19:54:30.936Z,91.70
2023-03-04T19:57:32.954Z,91.70
2023-03-04T20:00:37.031Z,91.30
2023-03-04T20:03:39.289Z,90.90
2023-03-04T20:06:43.665Z,91.10
2023-03-04T20:09:45.511Z,92.00
2023-03-04T20:12:47.120Z,91.20
2023-03-04T20:15:48.684Z,91.80
2023-03-04T20:18:51.971Z,91.50
2023-03-04T20:21:53.532Z,91.50
2023-03-04T20:24:55.145Z,91.50
2023-03-04T20:27:57.388Z,91.40
2023-03-04T20:31:15.472Z,91.50
2023-03-04T20:34:17.202Z,91.60
2023-03-04T20:37:18.839Z,91.70
2023-03-04T20:40:20.616Z,91.40
2023-03-04T20:43:24.004Z,91.40
2023-03-04T20:46:27.122Z,91.70
2023-03-04T20:49:29.826Z,91.50
2023-03-04T20:52:31.884Z,91.50
2023-03-04T20:55:33.429Z,91.60
2023-03-04T20:58:38.453Z,91.60
2023-03-04T21:01:42.703Z,91.80
2023-03-04T21:04:44.617Z,91.80
2023-03-04T21:07:49.345Z,91.90
2023-03-04T21:10:51.079Z,91.80
2023-03-04T21:13:56.079Z,91.70
2023-03-04T21:17:00.486Z,91.70
2023-03-04T21:20:02.089Z,91.80
2023-03-04T21:23:03.879Z,91.70
2023-03-04T21:26:08.693Z,91.80
2023-03-04T21:29:20.656Z,91.70
2023-03-04T21:32:29.215Z,91.60
2023-03-04T21:35:33.663Z,91.90
2023-03-04T21:38:35.225Z,91.80
2023-03-04T21:41:37.034Z,91.90
2023-03-04T21:44:49.308Z,91.80
2023-03-04T21:47:55.039Z,92.10
2023-03-04T21:51:02.002Z,91.10
2023-03-04T21:54:04.940Z,91.90
2023-03-04T21:57:06.487Z,92.00
2023-03-04T22:00:11.951Z,91.90
2023-03-04T22:03:13.555Z,91.80
2023-03-04T22:06:24.245Z,91.90
2023-03-04T22:09:31.932Z,91.30
2023-03-04T22:12:33.770Z,91.30
2023-03-04T22:15:40.312Z,92.00
2023-03-04T22:18:46.643Z,91.20
2023-03-04T22:21:48.238Z,92.40
2023-03-04T22:24:49.837Z,92.00
2023-03-04T22:27:51.405Z,92.10
2023-03-04T22:30:53.104Z,92.00
2023-03-04T22:33:54.709Z,92.50
2023-03-04T22:36:56.294Z,92.10
2023-03-04T22:39:57.957Z,92.20
2023-03-04T22:43:01.877Z,92.10
2023-03-04T22:46:15.086Z,92.10
2023-03-04T22:49:16.895Z,91.20
2023-03-04T22:52:23.327Z,92.10
2023-03-04T22:55:27.913Z,91.70
2023-03-04T22:58:43.652Z,92.20
2023-03-04T23:01:45.284Z,92.30
2023-03-04T23:04:46.841Z,92.30
2023-03-04T23:07:50.644Z,92.50
2023-03-04T23:10:52.277Z,92.60
2023-03-04T23:13:55.023Z,92.60
2023-03-04T23:16:56.794Z,92.70
2023-03-04T23:19:58.395Z,92.60
2023-03-04T23:23:00.018Z,92.80
2023-03-04T23:26:01.558Z,92.70
2023-03-04T23:29:04.922Z,92.70
2023-03-04T23:32:06.781Z,92.60
2023-03-04T23:35:08.690Z,92.70
2023-03-04T23:38:10.419Z,92.80
2023-03-04T23:41:21.149Z,93.40
2023-03-04T23:44:23.683Z,91.90
2023-03-04T23:47:25.361Z,92.70
2023-03-04T23:50:27.017Z,92.70
2023-03-04T23:53:28.699Z,92.80
2023-03-04T23:56:31.173Z,92.90
2023-03-04T23:59:33.165Z,92.80
